Terminal Aerodrome Forecast
Issued by NWS

Home | Current Version | Previous Version | Text Only | Print | Product List | Glossary On
Versions: 1 2 3 4 5 6 7 8 9 10 11 12 13
000
FTUS46 KSEW 242333
TAFPAE
TAF
KPAE 242333Z 2500/2524 16007KT P6SM BKN035 BKN045 BKN060
     FM250700 18016G23KT P6SM -RA OVC035
     FM251000 24012G25KT P6SM -RA OVC015=

USA.gov is the U.S. government's official web portal to all federal, state and local government web resources and services.